首页
METAR-TAF:

METAR-TAF

机场 :

凯斯门特机场

都柏林, 爱尔兰

纬度: 53-18-06N, 经度: 6-27-04W, 海拔: 97米

当前天气观测

该预报发布于26分钟前的08:00 UTC
风速10节,风向西转西南
温度 7°C
湿度 87%
气压 1016 hPa
能见度10公里或以上
少量云层高于1500英尺
多云层高于3600英尺

METAR: EIME 030800Z 24010KT 9999 FEW015 BKN036 07/05 Q1016

时间: 09:26 (08:26 UTC)

预报

该预报发布于3小时和26分钟前的05:00 UTC
预报有效从03日的 06点(UTC)到 03日的 15点(UTC)
风速9节,风向西
能见度10公里或以上
少量云层高于1200英尺
多云层高于4000英尺

TAF: EIME 030500Z 0306/0315 26009KT 9999 FEW012 BKN040

超过4000个机场的气象观测和天气预报(METAR&TAF报告)。

可查询的气象台以黄色和红色小点在地图上表示。

将鼠标移到小点上方,可查看气象台名称。

然后点击查看天气观测和预报。

如需切换地图:点击带黑十字的绿色按钮放大地图;点击带横线的绿色按钮缩小地图;或者点击绿色箭头查看邻近地区的地图。


METAR-TAF: